createdAt,value
2023-03-28T00:01:12.081Z,6.41
2023-03-28T00:03:40.892Z,6.37
2023-03-28T00:06:12.457Z,6.33
2023-03-28T00:08:41.065Z,6.28
2023-03-28T00:11:24.798Z,6.23
2023-03-28T00:14:01.238Z,6.20
2023-03-28T00:16:37.238Z,6.17
2023-03-28T00:19:12.045Z,6.13
2023-03-28T00:21:47.261Z,6.09
2023-03-28T00:24:21.582Z,6.05
2023-03-28T00:26:54.848Z,6.02
2023-03-28T00:29:26.256Z,5.99
2023-03-28T00:31:54.628Z,5.96
2023-03-28T00:34:23.101Z,5.92
2023-03-28T00:36:54.110Z,5.92
2023-03-28T00:39:22.660Z,5.91
2023-03-28T00:41:51.539Z,5.88
2023-03-28T00:44:41.771Z,5.89
2023-03-28T00:47:26.140Z,5.86
2023-03-28T00:50:05.603Z,5.84
2023-03-28T00:52:40.404Z,5.80
2023-03-28T00:55:17.419Z,5.75
2023-03-28T00:57:48.274Z,5.74
2023-03-28T01:00:19.191Z,5.71
2023-03-28T01:02:53.553Z,5.71
2023-03-28T01:05:28.833Z,5.69
2023-03-28T01:08:06.634Z,5.64
2023-03-28T01:10:34.960Z,5.60
2023-03-28T01:13:04.749Z,5.54
2023-03-28T01:15:33.876Z,5.51
2023-03-28T01:18:04.099Z,5.50
2023-03-28T01:21:02.395Z,5.46
2023-03-28T01:23:52.403Z,5.40
2023-03-28T01:26:48.271Z,5.35
2023-03-28T01:30:09.590Z,5.28
2023-03-28T01:33:13.197Z,5.18
2023-03-28T01:36:34.616Z,5.13
2023-03-28T01:39:15.706Z,5.02
2023-03-28T01:42:23.009Z,4.92
2023-03-28T01:45:19.512Z,4.85
2023-03-28T01:48:05.794Z,4.80
2023-03-28T01:50:48.415Z,4.74
2023-03-28T01:53:32.872Z,4.72
2023-03-28T01:56:13.739Z,4.63
2023-03-28T01:58:49.054Z,4.62
2023-03-28T02:01:37.025Z,4.53
2023-03-28T02:04:20.608Z,4.48
2023-03-28T02:07:02.284Z,4.45
2023-03-28T02:09:38.124Z,4.40
2023-03-28T02:12:40.873Z,4.38
2023-03-28T02:15:15.141Z,4.32
2023-03-28T02:18:18.169Z,4.28
2023-03-28T02:21:02.420Z,4.25
2023-03-28T02:23:47.490Z,4.20
2023-03-28T02:26:40.608Z,4.16
2023-03-28T02:29:30.849Z,4.12
2023-03-28T02:32:22.099Z,4.05
2023-03-28T02:34:53.752Z,4.03
2023-03-28T02:37:54.394Z,4.02
2023-03-28T02:40:25.939Z,3.93
2023-03-28T02:43:16.159Z,3.90
2023-03-28T02:46:19.428Z,3.89
2023-03-28T02:48:47.850Z,3.84
2023-03-28T02:51:50.100Z,3.85
2023-03-28T02:54:36.401Z,3.85
2023-03-28T02:57:36.684Z,3.80
2023-03-28T03:00:12.606Z,3.81
2023-03-28T03:02:44.334Z,3.82
2023-03-28T03:05:14.050Z,3.79
2023-03-28T03:07:42.774Z,3.79
2023-03-28T03:10:12.267Z,3.80
2023-03-28T03:12:41.393Z,3.82
2023-03-28T03:15:11.942Z,3.85
2023-03-28T03:18:00.722Z,3.92
2023-03-28T03:20:34.853Z,3.96
2023-03-28T03:23:04.443Z,4.00
2023-03-28T03:25:34.744Z,4.07
2023-03-28T03:28:17.566Z,4.13
2023-03-28T03:30:46.778Z,4.16
2023-03-28T03:33:24.696Z,4.23
2023-03-28T03:36:01.232Z,4.28
2023-03-28T03:38:30.017Z,4.29
2023-03-28T03:40:58.546Z,4.30
2023-03-28T03:43:27.951Z,4.29
2023-03-28T03:45:56.663Z,4.30
2023-03-28T03:48:25.389Z,4.25
2023-03-28T03:50:59.376Z,4.23
2023-03-28T03:53:27.986Z,4.21
2023-03-28T03:56:05.516Z,4.19
2023-03-28T03:59:09.538Z,4.16
2023-03-28T04:01:44.245Z,4.12
2023-03-28T04:04:37.119Z,4.08
2023-03-28T04:07:24.987Z,4.03
2023-03-28T04:09:55.096Z,4.06
2023-03-28T04:12:26.492Z,4.03
2023-03-28T04:14:56.796Z,3.95
2023-03-28T04:17:45.366Z,3.95
2023-03-28T04:20:17.645Z,3.95
2023-03-28T04:23:06.116Z,3.95
2023-03-28T04:25:34.891Z,3.89
2023-03-28T04:28:06.508Z,3.91
2023-03-28T04:30:38.460Z,3.89
2023-03-28T04:33:27.206Z,3.88
2023-03-28T04:36:00.454Z,3.86
2023-03-28T04:38:36.449Z,3.85
2023-03-28T04:41:28.569Z,3.85
2023-03-28T04:44:15.832Z,3.78
2023-03-28T04:46:49.111Z,3.80
2023-03-28T04:49:18.376Z,3.79
2023-03-28T04:51:47.394Z,3.78
2023-03-28T04:54:15.961Z,3.77
2023-03-28T04:56:50.609Z,3.74
2023-03-28T04:59:24.877Z,3.68
2023-03-28T05:01:54.046Z,3.62
2023-03-28T05:04:41.098Z,3.62
2023-03-28T05:07:10.835Z,3.62
2023-03-28T05:09:39.546Z,3.58
2023-03-28T05:12:08.374Z,3.56
2023-03-28T05:14:52.137Z,3.53
2023-03-28T05:17:20.772Z,3.50
2023-03-28T05:20:01.678Z,3.49
2023-03-28T05:22:37.266Z,3.49
2023-03-28T05:25:08.632Z,3.51
2023-03-28T05:27:38.942Z,3.54
2023-03-28T05:30:09.856Z,3.56
2023-03-28T05:32:38.964Z,3.58
2023-03-28T05:35:13.314Z,3.61
2023-03-28T05:37:44.130Z,3.62
2023-03-28T05:40:15.731Z,3.64
2023-03-28T05:42:44.850Z,3.66
2023-03-28T05:45:17.584Z,3.65
2023-03-28T05:48:03.706Z,3.66
2023-03-28T05:50:32.589Z,3.64
2023-03-28T05:53:07.005Z,3.60
2023-03-28T05:55:35.982Z,3.58
2023-03-28T05:58:06.467Z,3.57
2023-03-28T06:00:40.704Z,3.58
2023-03-28T06:03:09.748Z,3.61
2023-03-28T06:05:46.123Z,3.64
2023-03-28T06:08:22.405Z,3.67
2023-03-28T06:10:51.276Z,3.71
2023-03-28T06:13:27.118Z,3.77
2023-03-28T06:15:55.654Z,3.81
2023-03-28T06:18:31.221Z,3.85
2023-03-28T06:20:59.960Z,3.93
2023-03-28T06:23:28.684Z,4.00
2023-03-28T06:25:57.746Z,4.08
2023-03-28T06:28:26.813Z,4.15
2023-03-28T06:31:07.577Z,4.20
2023-03-28T06:33:36.046Z,4.27
2023-03-28T06:36:06.173Z,4.33
2023-03-28T06:38:35.381Z,4.44
2023-03-28T06:41:04.188Z,4.51
2023-03-28T06:43:32.833Z,4.54
2023-03-28T06:46:16.323Z,4.62
2023-03-28T06:48:45.713Z,4.65
2023-03-28T06:51:29.409Z,4.65
2023-03-28T06:53:58.026Z,4.63
2023-03-28T06:56:29.463Z,4.65
2023-03-28T06:58:58.815Z,4.66
2023-03-28T07:01:29.629Z,4.67
2023-03-28T07:04:06.479Z,4.67
2023-03-28T07:06:36.009Z,4.65
2023-03-28T07:09:06.332Z,4.65
2023-03-28T07:11:42.233Z,4.62
2023-03-28T07:14:11.082Z,4.64
2023-03-28T07:16:39.480Z,4.65
2023-03-28T07:19:08.111Z,4.66
2023-03-28T07:21:37.956Z,4.65
2023-03-28T07:24:06.932Z,4.64
2023-03-28T07:27:14.091Z,4.63
2023-03-28T07:29:42.934Z,4.64
2023-03-28T07:32:12.038Z,4.69
2023-03-28T07:34:41.056Z,4.72
2023-03-28T07:37:10.740Z,4.71
2023-03-28T07:40:02.246Z,4.72
2023-03-28T07:42:31.061Z,4.74
2023-03-28T07:44:59.533Z,4.76
2023-03-28T07:47:30.734Z,4.75
2023-03-28T07:49:59.101Z,4.76
2023-03-28T07:52:28.866Z,4.77
2023-03-28T07:54:57.400Z,4.78
2023-03-28T07:57:26.116Z,4.81
2023-03-28T08:00:13.469Z,4.88
2023-03-28T08:02:44.601Z,4.97
2023-03-28T08:05:13.911Z,5.06
2023-03-28T08:07:46.042Z,5.17
2023-03-28T08:10:14.936Z,5.29
2023-03-28T08:12:43.430Z,5.37
2023-03-28T08:15:12.257Z,5.42
2023-03-28T08:17:40.815Z,5.48
2023-03-28T08:20:11.060Z,5.52
2023-03-28T08:22:39.518Z,5.55
2023-03-28T08:25:20.906Z,5.57
2023-03-28T08:27:49.615Z,5.60
2023-03-28T08:30:18.146Z,5.65
2023-03-28T08:32:53.248Z,5.72
2023-03-28T08:35:21.760Z,5.76
2023-03-28T08:37:52.370Z,5.81
2023-03-28T08:40:21.224Z,5.85
2023-03-28T08:43:11.668Z,5.91
2023-03-28T08:45:51.287Z,5.96
2023-03-28T08:48:34.698Z,5.97
2023-03-28T08:51:28.906Z,6.00
2023-03-28T08:54:18.857Z,6.05
2023-03-28T08:56:53.729Z,6.05
2023-03-28T08:59:43.708Z,6.02
2023-03-28T09:02:21.901Z,5.96
2023-03-28T09:04:51.871Z,5.93
2023-03-28T09:07:37.284Z,5.94
2023-03-28T09:10:22.299Z,5.96
2023-03-28T09:13:34.007Z,5.99
2023-03-28T09:16:23.860Z,6.03
2023-03-28T09:19:44.768Z,6.09
2023-03-28T09:23:02.659Z,6.22
2023-03-28T09:25:49.136Z,6.31
2023-03-28T09:28:41.026Z,6.41
2023-03-28T09:31:13.200Z,6.51
2023-03-28T09:33:45.889Z,6.57
2023-03-28T09:36:31.505Z,6.58
2023-03-28T09:39:17.492Z,6.59
2023-03-28T09:41:55.344Z,6.55
2023-03-28T09:44:57.829Z,6.55
2023-03-28T09:47:50.242Z,6.57
2023-03-28T09:50:21.984Z,6.58
2023-03-28T09:52:57.807Z,6.59
2023-03-28T09:55:31.295Z,6.64
2023-03-28T09:58:09.209Z,6.71
2023-03-28T10:01:36.649Z,6.73
2023-03-28T10:04:28.559Z,6.76
2023-03-28T10:07:11.398Z,6.75
2023-03-28T10:10:03.657Z,6.72
2023-03-28T10:12:39.949Z,6.70
2023-03-28T10:15:33.414Z,6.69
2023-03-28T10:18:25.210Z,6.56
2023-03-28T10:21:24.221Z,6.41
2023-03-28T10:24:17.733Z,6.35
2023-03-28T10:26:52.394Z,6.26
2023-03-28T10:29:21.889Z,6.20
2023-03-28T10:31:51.058Z,6.14
2023-03-28T10:34:38.084Z,6.08
2023-03-28T10:37:32.789Z,5.99
2023-03-28T10:40:20.522Z,5.85
2023-03-28T10:43:14.659Z,5.90
2023-03-28T10:45:51.339Z,5.84
2023-03-28T10:48:36.557Z,5.83
2023-03-28T10:51:17.186Z,5.87
2023-03-28T10:53:51.545Z,5.85
2023-03-28T10:56:33.690Z,5.91
2023-03-28T10:59:27.707Z,6.01
2023-03-28T11:01:59.946Z,6.06
2023-03-28T11:04:52.908Z,6.11
2023-03-28T11:07:36.997Z,6.13
2023-03-28T11:11:02.351Z,6.20
2023-03-28T11:13:39.445Z,6.26
2023-03-28T11:16:34.210Z,6.26
2023-03-28T11:19:57.604Z,6.34
2023-03-28T11:22:42.177Z,6.34
2023-03-28T11:25:22.793Z,6.44
2023-03-28T11:28:21.999Z,6.49
2023-03-28T11:30:58.907Z,6.51
2023-03-28T11:33:44.418Z,6.51
2023-03-28T11:36:29.546Z,6.51
2023-03-28T11:39:10.688Z,6.50
2023-03-28T11:41:41.719Z,6.53
2023-03-28T11:44:29.873Z,6.53
2023-03-28T11:47:13.264Z,6.52
2023-03-28T11:49:54.634Z,6.58
2023-03-28T11:53:13.831Z,6.63
2023-03-28T11:55:58.664Z,6.69
2023-03-28T11:58:52.629Z,6.74
2023-03-28T12:01:27.432Z,6.84
2023-03-28T12:04:02.379Z,6.90
2023-03-28T12:07:03.918Z,6.93
2023-03-28T12:09:56.590Z,7.02
2023-03-28T12:12:30.080Z,7.04
2023-03-28T12:15:16.785Z,7.05
2023-03-28T12:18:17.688Z,7.19
2023-03-28T12:21:00.855Z,7.27
2023-03-28T12:23:53.642Z,7.36
2023-03-28T12:26:57.147Z,7.44
2023-03-28T12:29:34.481Z,7.52
2023-03-28T12:32:25.771Z,7.53
2023-03-28T12:35:02.771Z,7.54
2023-03-28T12:37:58.832Z,7.51
2023-03-28T12:40:58.572Z,7.40
2023-03-28T12:43:49.785Z,7.31
2023-03-28T12:46:47.856Z,7.32
2023-03-28T12:49:19.975Z,7.29
2023-03-28T12:51:53.525Z,7.24
2023-03-28T12:54:26.244Z,7.24
2023-03-28T12:57:37.518Z,7.25
2023-03-28T13:00:16.709Z,7.27
2023-03-28T13:03:28.252Z,7.26
2023-03-28T13:06:15.309Z,7.29
2023-03-28T13:09:00.344Z,7.32
2023-03-28T13:12:00.120Z,7.35
2023-03-28T13:14:40.021Z,7.33
2023-03-28T13:17:27.284Z,7.32
2023-03-28T13:20:07.934Z,7.25
2023-03-28T13:22:57.823Z,7.22
2023-03-28T13:25:36.101Z,7.20
2023-03-28T13:28:13.697Z,7.17
2023-03-28T13:31:06.138Z,7.13
2023-03-28T13:33:42.847Z,7.19
2023-03-28T13:36:18.209Z,7.18
2023-03-28T13:39:20.386Z,7.09
2023-03-28T13:41:48.700Z,7.04
2023-03-28T13:44:24.868Z,7.07
2023-03-28T13:46:54.304Z,7.04
2023-03-28T13:49:28.742Z,7.03
2023-03-28T13:52:05.007Z,7.03
2023-03-28T13:54:33.986Z,7.05
2023-03-28T13:57:06.685Z,7.04
2023-03-28T13:59:40.731Z,7.09
2023-03-28T14:02:32.073Z,7.12
2023-03-28T14:05:11.320Z,7.14
2023-03-28T14:07:40.379Z,7.07
2023-03-28T14:10:32.040Z,7.05
2023-03-28T14:13:25.650Z,6.99
2023-03-28T14:15:56.332Z,6.96
2023-03-28T14:18:46.940Z,6.96
2023-03-28T14:21:15.957Z,6.94
2023-03-28T14:23:56.887Z,6.93
2023-03-28T14:26:29.749Z,6.94
2023-03-28T14:29:05.322Z,6.93
2023-03-28T14:31:40.685Z,6.95
2023-03-28T14:34:21.540Z,6.98
2023-03-28T14:37:01.740Z,7.02
2023-03-28T14:39:32.387Z,7.04
2023-03-28T14:42:06.985Z,7.06
2023-03-28T14:44:40.491Z,7.09
2023-03-28T14:47:15.961Z,7.10
2023-03-28T14:49:45.943Z,7.11
2023-03-28T14:52:17.896Z,7.12
2023-03-28T14:54:48.263Z,7.13
2023-03-28T14:57:18.531Z,7.17
2023-03-28T14:59:50.193Z,7.21
2023-03-28T15:02:46.406Z,7.25
2023-03-28T15:05:17.693Z,7.27
2023-03-28T15:07:54.761Z,7.28
2023-03-28T15:10:25.703Z,7.25
2023-03-28T15:13:18.349Z,7.23
2023-03-28T15:15:48.600Z,7.20
2023-03-28T15:18:25.394Z,7.13
2023-03-28T15:20:57.263Z,7.07
2023-03-28T15:23:32.655Z,7.01
2023-03-28T15:26:04.640Z,6.95
2023-03-28T15:28:33.581Z,6.90
2023-03-28T15:31:03.998Z,6.84
2023-03-28T15:33:34.512Z,6.79
2023-03-28T15:36:19.526Z,6.76
2023-03-28T15:39:10.456Z,6.70
2023-03-28T15:41:47.466Z,6.65
2023-03-28T15:44:31.816Z,6.61
2023-03-28T15:47:05.256Z,6.56
2023-03-28T15:49:38.163Z,6.53
2023-03-28T15:52:16.817Z,6.51
2023-03-28T15:54:52.229Z,6.47
2023-03-28T15:57:23.901Z,6.43
2023-03-28T15:59:52.435Z,6.41
2023-03-28T16:02:23.821Z,6.37
2023-03-28T16:05:15.245Z,6.34
2023-03-28T16:07:50.008Z,6.30
2023-03-28T16:10:21.358Z,6.26
2023-03-28T16:13:29.605Z,6.21
2023-03-28T16:16:26.283Z,6.17
2023-03-28T16:19:19.634Z,6.13
2023-03-28T16:21:48.505Z,6.09
2023-03-28T16:24:16.976Z,6.05
2023-03-28T16:26:46.320Z,6.00
2023-03-28T16:29:14.826Z,5.96
2023-03-28T16:31:43.470Z,5.92
2023-03-28T16:34:11.961Z,5.88
2023-03-28T16:36:40.318Z,5.84
2023-03-28T16:39:10.213Z,5.79
2023-03-28T16:41:38.720Z,5.74
2023-03-28T16:44:07.202Z,5.69
2023-03-28T16:46:35.687Z,5.63
2023-03-28T16:49:04.405Z,5.58
2023-03-28T16:51:32.853Z,5.52
2023-03-28T16:54:49.967Z,5.46
2023-03-28T16:57:18.444Z,5.38
2023-03-28T16:59:47.041Z,5.35
2023-03-28T17:02:15.738Z,5.34
2023-03-28T17:04:50.711Z,5.34
2023-03-28T17:07:19.290Z,5.36
2023-03-28T17:09:48.535Z,5.38
2023-03-28T17:12:18.620Z,5.40
2023-03-28T17:14:47.744Z,5.43
2023-03-28T17:17:16.419Z,5.45
2023-03-28T17:19:44.921Z,5.51
2023-03-28T17:22:13.464Z,5.59
2023-03-28T17:24:42.432Z,5.65
2023-03-28T17:27:11.148Z,5.72
2023-03-28T17:29:39.619Z,5.79
2023-03-28T17:32:08.447Z,5.85
2023-03-28T17:34:37.348Z,5.94
2023-03-28T17:37:06.056Z,6.03
2023-03-28T17:39:34.567Z,6.12
2023-03-28T17:42:03.214Z,6.21
2023-03-28T17:44:34.850Z,6.30
2023-03-28T17:47:03.613Z,6.37
2023-03-28T17:49:32.267Z,6.42
2023-03-28T17:52:44.903Z,6.43
2023-03-28T17:55:13.616Z,6.37
2023-03-28T17:57:42.387Z,6.35
2023-03-28T18:00:11.298Z,6.32
2023-03-28T18:02:46.624Z,6.31
2023-03-28T18:05:30.008Z,6.27
2023-03-28T18:12:51.171Z,6.05
2023-03-28T18:15:19.911Z,5.98
2023-03-28T18:17:48.373Z,5.97
2023-03-28T18:20:17.502Z,5.96
2023-03-28T18:22:46.569Z,5.95
2023-03-28T18:26:17.918Z,6.01
2023-03-28T18:28:46.745Z,6.05
2023-03-28T18:31:17.878Z,6.07
2023-03-28T18:33:46.695Z,6.13
2023-03-28T18:36:20.145Z,6.19
2023-03-28T18:38:49.180Z,6.18
2023-03-28T18:41:17.863Z,6.23
2023-03-28T18:43:46.513Z,6.25
2023-03-28T18:46:16.154Z,6.24
2023-03-28T18:49:09.146Z,6.23
2023-03-28T18:51:38.806Z,6.24
2023-03-28T18:54:07.475Z,6.26
2023-03-28T18:56:39.787Z,6.20
2023-03-28T18:59:08.888Z,6.05
2023-03-28T19:01:42.288Z,5.83
2023-03-28T19:04:12.585Z,5.54
2023-03-28T19:06:41.236Z,5.17
2023-03-28T19:09:09.603Z,4.87
2023-03-28T19:11:38.232Z,4.71
2023-03-28T19:14:09.781Z,4.55
2023-03-28T19:16:38.374Z,4.46
2023-03-28T19:19:06.984Z,4.41
2023-03-28T19:21:35.428Z,4.30
2023-03-28T19:24:03.966Z,4.23
2023-03-28T19:26:32.699Z,4.22
2023-03-28T19:30:01.040Z,4.21
2023-03-28T19:32:30.818Z,4.16
2023-03-28T19:34:59.281Z,4.13
2023-03-28T19:37:27.626Z,4.09
2023-03-28T19:39:59.309Z,4.03
2023-03-28T19:42:27.747Z,3.99
2023-03-28T19:44:56.141Z,3.93
2023-03-28T19:47:24.911Z,3.89
2023-03-28T19:49:53.459Z,3.84
2023-03-28T19:52:21.701Z,3.80
2023-03-28T19:54:50.920Z,3.77
2023-03-28T19:57:19.497Z,3.70
2023-03-28T19:59:47.863Z,3.62
2023-03-28T20:02:16.343Z,3.55
2023-03-28T20:04:44.773Z,3.50
2023-03-28T20:07:13.197Z,3.43
2023-03-28T20:09:46.116Z,3.39
2023-03-28T20:12:18.977Z,3.34
2023-03-28T20:14:47.744Z,3.26
2023-03-28T20:17:16.296Z,3.18
2023-03-28T20:19:44.802Z,3.12
2023-03-28T20:22:13.350Z,3.05
2023-03-28T20:24:42.226Z,2.98
2023-03-28T20:27:12.611Z,2.90
2023-03-28T20:29:42.594Z,2.83
2023-03-28T20:32:11.531Z,2.76
2023-03-28T20:34:40.004Z,2.68
2023-03-28T20:37:08.649Z,2.62
2023-03-28T20:39:37.123Z,2.56
2023-03-28T20:42:05.842Z,2.52
2023-03-28T20:44:38.491Z,2.49
2023-03-28T20:47:08.838Z,2.51
2023-03-28T20:49:38.573Z,2.50
2023-03-28T20:52:08.096Z,2.45
2023-03-28T20:54:36.528Z,2.38
2023-03-28T20:57:05.134Z,2.29
2023-03-28T20:59:34.907Z,2.20
2023-03-28T21:02:05.379Z,2.07
2023-03-28T21:04:33.966Z,1.94
2023-03-28T21:07:03.457Z,1.84
2023-03-28T21:09:31.881Z,1.76
2023-03-28T21:12:00.441Z,1.66
2023-03-28T21:14:29.126Z,1.56
2023-03-28T21:16:58.072Z,1.52
2023-03-28T21:19:26.642Z,1.48
2023-03-28T21:21:56.636Z,1.45
2023-03-28T21:24:25.076Z,1.40
2023-03-28T21:26:53.492Z,1.37
2023-03-28T21:29:22.114Z,1.30
2023-03-28T21:31:50.467Z,1.25
2023-03-28T21:34:19.028Z,1.20
2023-03-28T21:36:48.771Z,1.16
2023-03-28T21:39:18.897Z,1.11
2023-03-28T21:41:47.230Z,1.07
2023-03-28T21:44:15.764Z,1.03
2023-03-28T21:46:44.201Z,1.01
2023-03-28T21:49:12.687Z,0.97
2023-03-28T21:51:42.013Z,0.94
2023-03-28T21:54:10.583Z,0.92
2023-03-28T21:56:39.025Z,0.88
2023-03-28T21:59:07.488Z,0.83
2023-03-28T22:01:36.527Z,0.78
2023-03-28T22:04:05.342Z,0.75
2023-03-28T22:06:33.748Z,0.69
2023-03-28T22:09:02.939Z,0.64
2023-03-28T22:11:32.903Z,0.58
2023-03-28T22:14:02.487Z,0.53
2023-03-28T22:16:38.898Z,0.49
2023-03-28T22:19:11.557Z,0.47
2023-03-28T22:21:39.833Z,0.41
2023-03-28T22:24:13.386Z,0.36
2023-03-28T22:26:42.759Z,0.33
2023-03-28T22:29:11.957Z,0.30
2023-03-28T22:31:40.872Z,0.24
2023-03-28T22:34:09.950Z,0.21
2023-03-28T22:36:38.287Z,0.16
2023-03-28T22:39:07.970Z,0.12
2023-03-28T22:41:36.537Z,0.07
2023-03-28T22:44:05.102Z,0.01
2023-03-28T22:46:34.236Z,-0.02
2023-03-28T22:49:04.669Z,-0.05
2023-03-28T22:51:33.435Z,-0.08
2023-03-28T22:54:03.418Z,-0.12
2023-03-28T22:56:31.841Z,-0.16
2023-03-28T22:59:01.608Z,-0.20
2023-03-28T23:01:30.372Z,-0.25
2023-03-28T23:03:58.861Z,-0.31
2023-03-28T23:06:28.181Z,-0.37
2023-03-28T23:08:56.797Z,-0.41
2023-03-28T23:11:25.220Z,-0.42
2023-03-28T23:13:53.886Z,-0.42
2023-03-28T23:16:22.447Z,-0.41
2023-03-28T23:18:50.944Z,-0.43
2023-03-28T23:21:20.229Z,-0.44
2023-03-28T23:23:48.765Z,-0.46
2023-03-28T23:26:17.966Z,-0.48
2023-03-28T23:28:46.531Z,-0.51
2023-03-28T23:31:15.038Z,-0.54
2023-03-28T23:33:46.409Z,-0.57
2023-03-28T23:36:20.583Z,-0.59
2023-03-28T23:38:49.201Z,-0.62
2023-03-28T23:41:17.764Z,-0.63
2023-03-28T23:43:46.407Z,-0.66
2023-03-28T23:46:14.990Z,-0.69
2023-03-28T23:48:43.413Z,-0.70
2023-03-28T23:51:11.973Z,-0.74
2023-03-28T23:53:40.456Z,-0.76
2023-03-28T23:56:09.945Z,-0.78
2023-03-28T23:58:38.619Z,-0.78
